createdAt,value
2018-07-25T00:02:20.129Z,20.60
2018-07-25T00:04:49.415Z,20.60
2018-07-25T00:10:11.887Z,20.40
2018-07-25T00:12:41.215Z,20.40
2018-07-25T00:15:10.492Z,20.40
2018-07-25T00:17:39.759Z,20.40
2018-07-25T00:20:09.131Z,20.40
2018-07-25T00:22:38.454Z,20.30
2018-07-25T00:27:36.511Z,20.30
2018-07-25T00:30:06.267Z,20.20
2018-07-25T00:32:35.507Z,20.20
2018-07-25T00:35:04.859Z,20.20
2018-07-25T00:37:34.149Z,20.20
2018-07-25T00:40:03.568Z,20.10
2018-07-25T00:42:32.730Z,20.10
2018-07-25T00:45:02.072Z,19.90
2018-07-25T00:47:31.450Z,19.90
2018-07-25T00:50:00.624Z,19.90
2018-07-25T00:52:29.883Z,20.00
2018-07-25T00:54:59.175Z,20.00
2018-07-25T00:57:28.485Z,19.90
2018-07-25T00:59:57.808Z,19.90
2018-07-25T01:02:27.158Z,19.90
2018-07-25T01:04:56.486Z,19.90
2018-07-25T01:07:25.769Z,19.60
2018-07-25T01:09:55.075Z,19.40
2018-07-25T01:12:24.370Z,19.30
2018-07-25T01:14:53.957Z,19.30
2018-07-25T01:17:23.286Z,19.30
2018-07-25T01:19:52.775Z,19.20
2018-07-25T01:22:21.954Z,19.30
2018-07-25T01:24:51.306Z,19.20
2018-07-25T01:27:20.626Z,19.10
2018-07-25T01:29:49.989Z,19.00
2018-07-25T01:32:19.287Z,18.90
2018-07-25T01:34:48.599Z,18.90
2018-07-25T01:37:17.856Z,19.00
2018-07-25T01:39:47.174Z,18.90
2018-07-25T01:42:16.495Z,18.90
2018-07-25T01:44:45.755Z,19.00
2018-07-25T01:47:14.997Z,19.00
2018-07-25T01:49:44.325Z,19.00
2018-07-25T01:52:13.646Z,18.90
2018-07-25T01:54:43.091Z,18.90
2018-07-25T01:57:12.402Z,18.90
2018-07-25T01:59:41.668Z,18.90
2018-07-25T02:02:10.884Z,18.90
2018-07-25T02:04:40.142Z,19.00
2018-07-25T02:07:09.667Z,18.90
2018-07-25T02:09:38.959Z,18.90
2018-07-25T02:12:08.608Z,18.90
2018-07-25T02:14:37.795Z,19.00
2018-07-25T02:17:07.149Z,19.00
2018-07-25T02:19:36.483Z,19.10
2018-07-25T02:24:34.435Z,19.10
2018-07-25T02:27:03.664Z,19.20
2018-07-25T02:29:32.895Z,19.20
2018-07-25T02:32:02.399Z,19.20
2018-07-25T02:34:31.639Z,19.10
2018-07-25T02:37:00.923Z,19.10
2018-07-25T02:39:30.143Z,19.10
2018-07-25T02:41:59.467Z,19.10
2018-07-25T02:44:28.680Z,19.10
2018-07-25T02:46:57.914Z,19.10
2018-07-25T02:49:27.202Z,19.00
2018-07-25T02:51:56.405Z,19.00
2018-07-25T02:54:25.593Z,19.00
2018-07-25T02:56:54.856Z,19.10
2018-07-25T02:59:24.061Z,19.10
2018-07-25T03:01:53.241Z,19.00
2018-07-25T03:04:22.554Z,19.10
2018-07-25T03:06:51.789Z,19.10
2018-07-25T03:09:20.952Z,19.10
2018-07-25T03:11:50.130Z,19.10
2018-07-25T03:14:19.407Z,19.10
2018-07-25T03:16:48.847Z,19.10
2018-07-25T03:19:18.115Z,19.00
2018-07-25T03:21:47.446Z,19.00
2018-07-25T03:24:16.767Z,18.90
2018-07-25T03:26:45.927Z,18.90
2018-07-25T03:29:15.194Z,18.70
2018-07-25T03:31:44.495Z,18.70
2018-07-25T03:34:13.755Z,18.70
2018-07-25T03:36:42.987Z,18.60
2018-07-25T03:39:12.165Z,18.60
2018-07-25T03:41:41.428Z,18.50
2018-07-25T03:44:10.661Z,18.50
2018-07-25T03:46:39.974Z,18.50
2018-07-25T03:49:09.309Z,18.50
2018-07-25T03:51:38.666Z,18.60
2018-07-25T03:54:14.513Z,18.70
2018-07-25T03:56:43.823Z,18.70
2018-07-25T03:59:13.015Z,18.70
2018-07-25T04:04:10.919Z,18.70
2018-07-25T04:06:40.137Z,18.80
2018-07-25T04:09:10.046Z,18.80
2018-07-25T04:11:39.307Z,18.80
2018-07-25T04:16:37.363Z,18.70
2018-07-25T04:19:06.809Z,18.80
2018-07-25T04:21:36.011Z,18.70
2018-07-25T04:24:05.402Z,18.70
2018-07-25T04:26:34.985Z,18.70
2018-07-25T04:29:04.263Z,18.70
2018-07-25T04:31:33.565Z,18.80
2018-07-25T04:34:02.879Z,18.80
2018-07-25T04:36:32.175Z,18.70
2018-07-25T04:39:01.573Z,18.80
2018-07-25T04:41:30.889Z,18.80
2018-07-25T04:44:00.176Z,18.80
2018-07-25T04:46:29.525Z,18.90
2018-07-25T04:48:58.862Z,19.00
2018-07-25T04:51:28.170Z,19.10
2018-07-25T04:53:57.526Z,19.10
2018-07-25T04:56:26.790Z,19.10
2018-07-25T04:58:56.010Z,19.20
2018-07-25T05:01:25.263Z,19.20
2018-07-25T05:03:54.588Z,19.20
2018-07-25T05:06:23.922Z,19.30
2018-07-25T05:08:53.209Z,19.30
2018-07-25T05:11:22.598Z,19.30
2018-07-25T05:13:51.827Z,19.40
2018-07-25T05:16:21.135Z,19.40
2018-07-25T05:18:50.435Z,19.50
2018-07-25T05:21:19.690Z,19.50
2018-07-25T05:23:48.992Z,19.40
2018-07-25T05:26:18.326Z,19.50
2018-07-25T05:28:47.625Z,19.50
2018-07-25T05:31:16.795Z,19.60
2018-07-25T05:33:46.061Z,19.60
2018-07-25T05:36:15.406Z,19.60
2018-07-25T05:41:13.532Z,19.70
2018-07-25T05:43:42.953Z,19.70
2018-07-25T05:46:12.236Z,19.70
2018-07-25T05:48:41.585Z,19.80
2018-07-25T05:51:10.848Z,19.80
2018-07-25T05:53:40.128Z,19.90
2018-07-25T05:56:09.548Z,20.00
2018-07-25T05:58:38.869Z,20.10
2018-07-25T06:01:08.158Z,20.20
2018-07-25T06:03:37.615Z,20.40
2018-07-25T06:06:07.181Z,20.40
2018-07-25T06:08:36.599Z,20.50
2018-07-25T06:11:06.581Z,20.70
2018-07-25T06:13:35.853Z,20.80
2018-07-25T06:16:05.342Z,20.90
2018-07-25T06:18:34.889Z,21.00
2018-07-25T06:21:04.266Z,21.20
2018-07-25T06:23:33.587Z,21.30
2018-07-25T06:26:03.108Z,21.50
2018-07-25T06:28:32.235Z,21.60
2018-07-25T06:31:01.497Z,21.80
2018-07-25T06:33:31.139Z,22.00
2018-07-25T06:36:00.499Z,22.30
2018-07-25T06:38:29.766Z,22.50
2018-07-25T06:40:58.971Z,22.80
2018-07-25T06:43:28.276Z,23.00
2018-07-25T06:45:57.419Z,23.30
2018-07-25T06:48:26.682Z,23.60
2018-07-25T06:50:55.974Z,23.90
2018-07-25T06:53:25.235Z,24.00
2018-07-25T06:55:54.554Z,24.30
2018-07-25T06:58:23.840Z,24.60
2018-07-25T07:00:53.176Z,24.80
2018-07-25T07:03:22.560Z,24.90
2018-07-25T07:05:51.840Z,25.20
2018-07-25T07:08:21.177Z,25.50
2018-07-25T07:10:50.444Z,25.80
2018-07-25T07:13:19.678Z,26.10
2018-07-25T07:15:48.870Z,26.40
2018-07-25T07:18:18.038Z,26.70
2018-07-25T07:20:47.266Z,27.00
2018-07-25T07:23:16.523Z,27.30
2018-07-25T07:25:45.792Z,27.50
2018-07-25T07:28:15.295Z,27.70
2018-07-25T07:30:44.650Z,28.00
2018-07-25T07:33:13.994Z,28.30
2018-07-25T07:35:43.359Z,28.60
2018-07-25T07:38:12.691Z,28.90
2018-07-25T07:40:41.974Z,29.10
2018-07-25T07:45:40.016Z,29.70
2018-07-25T07:48:09.391Z,29.90
2018-07-25T07:50:38.671Z,30.20
2018-07-25T07:53:07.974Z,30.50
2018-07-25T07:55:37.323Z,30.50
2018-07-25T07:58:06.752Z,30.90
2018-07-25T08:00:36.117Z,31.10
2018-07-25T08:03:05.494Z,31.30
2018-07-25T08:05:34.776Z,31.30
2018-07-25T08:08:04.008Z,31.40
2018-07-25T08:10:33.290Z,31.90
2018-07-25T08:13:02.451Z,32.10
2018-07-25T08:15:31.718Z,32.20
2018-07-25T08:18:00.995Z,32.60
2018-07-25T08:20:30.279Z,33.00
2018-07-25T08:22:59.577Z,33.00
2018-07-25T08:25:28.766Z,33.20
2018-07-25T08:27:58.024Z,33.40
2018-07-25T08:30:27.319Z,33.50
2018-07-25T08:32:56.623Z,33.60
2018-07-25T08:35:25.963Z,33.70
2018-07-25T08:37:55.415Z,33.90
2018-07-25T08:40:24.755Z,34.00
2018-07-25T08:42:54.205Z,34.40
2018-07-25T08:45:23.459Z,34.40
2018-07-25T08:47:52.635Z,34.50
2018-07-25T08:50:21.957Z,34.70
2018-07-25T08:52:51.285Z,34.90
2018-07-25T08:55:20.603Z,35.40
2018-07-25T09:02:47.591Z,36.00
2018-07-25T09:05:16.903Z,36.30
2018-07-25T09:12:43.776Z,37.00
2018-07-25T09:15:13.034Z,37.10
2018-07-25T09:17:42.279Z,37.10
2018-07-25T09:25:09.319Z,37.80
2018-07-25T09:32:36.198Z,38.40
2018-07-25T09:35:05.591Z,38.40
2018-07-25T09:40:03.774Z,38.40
2018-07-25T09:42:33.055Z,38.50
2018-07-25T09:47:31.167Z,38.30
2018-07-25T10:09:50.899Z,39.80
2018-07-25T10:14:49.172Z,39.60
2018-07-25T10:17:18.523Z,39.50
2018-07-25T10:19:48.030Z,39.80
2018-07-25T10:25:10.739Z,40.00
2018-07-25T10:27:40.034Z,39.70
2018-07-25T10:32:38.097Z,40.30
2018-07-25T10:35:07.473Z,40.20
2018-07-25T10:40:06.451Z,40.80
2018-07-25T10:42:35.867Z,40.20
2018-07-25T10:47:34.430Z,40.60
2018-07-25T10:50:03.831Z,41.00
2018-07-25T10:52:33.218Z,40.80
2018-07-25T10:55:02.991Z,41.00
2018-07-25T10:57:32.728Z,41.20
2018-07-25T11:07:32.334Z,40.80
2018-07-25T11:12:30.434Z,41.30
2018-07-25T11:15:00.168Z,41.80
2018-07-25T11:17:29.847Z,40.80
2018-07-25T11:19:59.837Z,41.00
2018-07-25T11:22:29.570Z,41.30
2018-07-25T11:24:59.183Z,41.00
2018-07-25T11:27:28.563Z,40.80
2018-07-25T11:29:57.910Z,40.80
2018-07-25T11:34:56.094Z,42.30
2018-07-25T11:37:25.409Z,42.70
2018-07-25T11:47:39.426Z,42.70
2018-07-25T11:50:08.874Z,42.90
2018-07-25T11:52:42.779Z,43.40
2018-07-25T11:55:12.087Z,43.40
2018-07-25T12:00:10.179Z,43.30
2018-07-25T12:02:39.450Z,43.00
2018-07-25T12:07:41.033Z,42.70
2018-07-25T12:10:10.467Z,42.70
2018-07-25T12:12:39.888Z,42.90
2018-07-25T12:15:09.927Z,42.80
2018-07-25T12:20:08.664Z,43.40
2018-07-25T12:22:38.015Z,43.40
2018-07-25T12:25:08.209Z,43.30
2018-07-25T15:56:52.815Z,37.20
2018-07-25T15:59:22.229Z,37.20
2018-07-25T16:04:20.347Z,37.00
2018-07-25T16:06:49.712Z,37.00
2018-07-25T16:09:19.163Z,36.60
2018-07-25T16:11:48.813Z,36.10
2018-07-25T16:14:18.201Z,36.00
2018-07-25T16:16:47.884Z,36.10
2018-07-25T16:19:17.235Z,36.10
2018-07-25T16:21:46.726Z,36.10
2018-07-25T16:24:16.195Z,36.00
2018-07-25T16:26:45.541Z,35.90
2018-07-25T16:29:14.927Z,35.70
2018-07-25T16:31:44.340Z,35.50
2018-07-25T16:34:13.673Z,35.30
2018-07-25T16:36:42.918Z,35.20
2018-07-25T16:39:16.102Z,35.20
2018-07-25T16:41:45.476Z,35.00
2018-07-25T16:44:15.193Z,34.70
2018-07-25T16:46:44.545Z,34.70
2018-07-25T16:49:13.906Z,34.70
2018-07-25T16:51:43.238Z,34.60
2018-07-25T16:54:12.553Z,34.60
2018-07-25T16:56:42.214Z,34.70
2018-07-25T16:59:11.695Z,34.90
2018-07-25T17:41:30.877Z,37.30
2018-07-25T17:44:00.295Z,37.20
2018-07-25T17:46:29.693Z,37.10
2018-07-25T17:48:59.052Z,37.00
2018-07-25T17:51:28.410Z,36.80
2018-07-25T17:53:57.731Z,36.40
2018-07-25T17:56:27.058Z,36.40
2018-07-25T17:58:56.349Z,36.10
2018-07-25T18:01:25.766Z,35.90
2018-07-25T18:03:55.098Z,35.70
2018-07-25T18:06:24.506Z,35.30
2018-07-25T18:08:53.803Z,35.00
2018-07-25T18:11:23.090Z,34.60
2018-07-25T18:13:57.420Z,34.30
2018-07-25T18:16:26.888Z,34.20
2018-07-25T18:18:56.713Z,33.80
2018-07-25T18:21:26.045Z,33.20
2018-07-25T18:23:55.413Z,32.90
2018-07-25T18:26:24.744Z,32.80
2018-07-25T18:28:54.139Z,32.90
2018-07-25T18:31:23.447Z,32.70
2018-07-25T18:33:52.760Z,32.50
2018-07-25T18:36:22.136Z,32.20
2018-07-25T18:38:51.472Z,32.00
2018-07-25T18:41:20.927Z,31.70
2018-07-25T18:43:50.332Z,31.60
2018-07-25T18:46:19.743Z,31.50
2018-07-25T18:48:49.140Z,31.20
2018-07-25T18:51:18.635Z,30.90
2018-07-25T18:53:48.000Z,30.70
2018-07-25T18:56:17.434Z,30.70
2018-07-25T18:58:46.783Z,30.60
2018-07-25T19:01:16.110Z,30.50
2018-07-25T19:03:45.480Z,30.50
2018-07-25T19:06:14.859Z,30.40
2018-07-25T19:08:44.650Z,30.30
2018-07-25T19:11:14.102Z,30.20
2018-07-25T19:13:48.712Z,30.10
2018-07-25T19:16:18.047Z,29.80
2018-07-25T19:18:47.401Z,29.50
2018-07-25T19:21:16.876Z,29.50
2018-07-25T19:23:46.123Z,29.40
2018-07-25T19:26:15.727Z,28.90
2018-07-25T19:28:45.206Z,28.70
2018-07-25T19:31:14.523Z,28.70
2018-07-25T19:33:43.802Z,28.80
2018-07-25T19:36:13.179Z,28.70
2018-07-25T19:38:42.630Z,28.60
2018-07-25T19:41:11.943Z,28.60
2018-07-25T19:43:43.618Z,28.50
2018-07-25T19:46:13.043Z,28.40
2018-07-25T19:48:42.809Z,28.20
2018-07-25T19:51:12.100Z,28.10
2018-07-25T19:53:42.108Z,28.10
2018-07-25T19:56:15.008Z,28.10
2018-07-25T19:58:44.255Z,28.10
2018-07-25T20:01:13.560Z,28.00
2018-07-25T20:03:51.546Z,27.90
2018-07-25T20:06:22.405Z,27.90
2018-07-25T20:08:52.964Z,27.70
2018-07-25T20:11:23.169Z,27.70
2018-07-25T20:13:57.931Z,27.60
2018-07-25T20:16:40.199Z,27.50
2018-07-25T20:19:09.438Z,27.50
2018-07-25T20:21:38.798Z,27.30
2018-07-25T20:24:08.156Z,27.20
2018-07-25T20:26:38.001Z,27.20
2018-07-25T20:29:14.654Z,27.10
2018-07-25T20:32:03.372Z,26.70
2018-07-25T20:34:32.523Z,26.50
2018-07-25T20:37:01.591Z,26.40
2018-07-25T20:39:30.681Z,26.50
2018-07-25T20:41:59.742Z,26.60
2018-07-25T20:44:28.829Z,26.60
2018-07-25T20:46:57.905Z,26.40
2018-07-25T20:49:26.947Z,26.40
2018-07-25T20:51:56.022Z,26.30
2018-07-25T20:56:53.921Z,26.10
2018-07-25T20:59:22.962Z,26.00
2018-07-25T21:01:52.038Z,26.00
2018-07-25T21:04:21.105Z,26.10
2018-07-25T21:06:50.148Z,25.90
2018-07-25T21:09:19.222Z,25.80
2018-07-25T21:11:48.278Z,25.90
2018-07-25T21:14:17.343Z,25.90
2018-07-25T21:16:46.617Z,25.70
2018-07-25T21:19:15.885Z,25.60
2018-07-25T21:21:44.973Z,25.60
2018-07-25T21:26:42.600Z,25.60
2018-07-25T21:29:11.659Z,25.50
2018-07-25T21:31:40.758Z,25.40
2018-07-25T21:34:09.811Z,25.40
2018-07-25T21:36:38.881Z,25.40
2018-07-25T21:39:10.435Z,25.30
2018-07-25T21:41:39.491Z,25.30
2018-07-25T21:44:08.593Z,25.10
2018-07-25T21:46:37.755Z,24.90
2018-07-25T21:49:06.973Z,24.90
2018-07-25T21:51:36.016Z,24.90
2018-07-25T21:54:05.122Z,24.70
2018-07-25T21:56:34.193Z,24.60
2018-07-25T21:59:03.353Z,24.50
2018-07-25T22:01:32.398Z,24.30
2018-07-25T22:04:01.511Z,24.20
2018-07-25T22:06:30.527Z,24.10
2018-07-25T22:08:59.756Z,24.10
2018-07-25T22:11:28.822Z,24.10
2018-07-25T22:13:58.458Z,24.10
2018-07-25T22:16:27.989Z,24.00
2018-07-25T22:18:57.061Z,24.10
2018-07-25T22:21:26.335Z,24.10
2018-07-25T22:23:55.413Z,24.10
2018-07-25T22:26:24.430Z,24.10
2018-07-25T22:28:53.473Z,24.10
2018-07-25T22:31:22.554Z,24.10
2018-07-25T22:33:51.645Z,24.10
2018-07-25T22:36:20.793Z,24.10
2018-07-25T22:38:49.860Z,24.00
2018-07-25T22:41:18.898Z,23.90
2018-07-25T22:43:47.914Z,23.70
2018-07-25T22:46:16.961Z,23.70
2018-07-25T22:48:46.038Z,23.60
2018-07-25T22:51:15.090Z,23.70
2018-07-25T22:53:44.137Z,23.70
2018-07-25T22:56:13.483Z,23.50
2018-07-25T22:58:42.676Z,23.40
2018-07-25T23:01:11.745Z,23.20
2018-07-25T23:03:40.759Z,23.10
2018-07-25T23:06:09.815Z,23.10
2018-07-25T23:08:38.858Z,23.20
2018-07-25T23:11:07.901Z,23.20
2018-07-25T23:13:36.955Z,23.00
2018-07-25T23:16:06.174Z,23.00
2018-07-25T23:18:35.365Z,22.90
2018-07-25T23:21:04.500Z,22.80
2018-07-25T23:23:33.545Z,22.80
2018-07-25T23:26:02.571Z,22.80
2018-07-25T23:28:31.646Z,22.80
2018-07-25T23:31:00.774Z,22.70
2018-07-25T23:33:30.007Z,22.50
2018-07-25T23:35:59.227Z,22.50
2018-07-25T23:38:28.499Z,22.50
2018-07-25T23:40:57.815Z,22.50
2018-07-25T23:43:27.038Z,22.40
2018-07-25T23:45:56.334Z,22.40
2018-07-25T23:48:25.627Z,22.30
2018-07-25T23:50:54.903Z,22.30
2018-07-25T23:53:24.556Z,22.30
2018-07-25T23:55:53.838Z,22.20
2018-07-25T23:58:23.233Z,22.20
